Time;durP1;ratioP1;P1;durP2;ratioP2;P2;SDS_P1;SDS_P2;PMS_P1;PMS_P2;Temp;Humidity;BMP_temperature;BMP_pressure;BME280_temperature;BME280_humidity;BME280_pressure;Samples;Min_cycle;Max_cycle;Signal;HPM_P1;HPM_P2
2023/02/19 00:02:19;;;;;;;;;;;;;;;;;;5155848;27;20316;-70
2023/02/19 00:04:44;;;;;;;;;;;;;;;;;;5155686;27;19911;-70
2023/02/19 00:07:10;;;;;;;;;;;;;;;;;;5154991;27;19966;-70
2023/02/19 00:09:36;;;;;;;;;;;;;;;;;;5155398;27;19915;-71
2023/02/19 00:12:02;;;;;;;;;;;;;;;;;;5155343;27;19911;-70
2023/02/19 00:14:28;;;;;;;;;;;;;;;;;;5155147;27;19995;-70
2023/02/19 00:16:54;;;;;;;;;;;;;;;;;;5155245;27;19907;-71
2023/02/19 00:19:20;;;;;;;;;;;;;;;;;;5136705;27;19907;-70
2023/02/19 00:21:46;;;;;;;;;;;;;;;;;;5155216;27;20323;-71
2023/02/19 00:24:12;;;;;;;;;;;;;;;;;;5140748;27;19907;-71
2023/02/19 00:26:39;;;;;;;;;;;;;;;;;;5140756;27;19956;-71
2023/02/19 00:29:05;;;;;;;;;;;;;;;;;;5159024;27;19911;-71
2023/02/19 00:31:31;;;;;;;;;;;;;;;;;;5140685;27;19929;-71
2023/02/19 00:33:57;;;;;;;;;;;;;;;;;;5140680;27;19907;-70
2023/02/19 00:36:23;;;;;;;;;;;;;;;;;;5158802;27;19907;-71
2023/02/19 00:38:49;;;;;;;;;;;;;;;;;;5159252;27;19938;-70
2023/02/19 00:41:18;;;;;;;;;;;;;;;;;;5159274;27;19926;-70
2023/02/19 00:43:43;;;;;;;;;;;;;;;;;;5158765;27;19908;-71
2023/02/19 00:46:09;;;;;;;;;;;;;;;;;;5159048;27;19907;-71
2023/02/19 00:48:35;;;;;;;;;;;;;;;;;;5158942;27;19955;-71
2023/02/19 00:51:01;;;;;;;;;;;;;;;;;;5158534;27;19907;-71
2023/02/19 00:53:27;;;;;;;;;;;;;;;;;;5158895;27;19972;-71
2023/02/19 00:55:53;;;;;;;;;;;;;;;;;;5140292;27;20408;-71
2023/02/19 00:58:19;;;;;;;;;;;;;;;;;;5139863;27;20260;-71
2023/02/19 01:00:45;;;;;;;;;;;;;;;;;;5158503;27;20374;-71
2023/02/19 01:03:11;;;;;;;;;;;;;;;;;;5139876;27;20283;-71
2023/02/19 01:05:37;;;;;;;;;;;;;;;;;;5158619;27;19930;-71
2023/02/19 01:08:03;;;;;;;;;;;;;;;;;;5158519;27;19950;-71
2023/02/19 01:10:29;;;;;;;;;;;;;;;;;;5158263;27;19911;-71
2023/02/19 01:12:55;;;;;;;;;;;;;;;;;;5158404;27;19911;-71
2023/02/19 01:15:21;;;;;;;;;;;;;;;;;;5158488;27;19907;-71
2023/02/19 01:17:46;;;;;;;;;;;;;;;;;;5158239;27;19914;-71
2023/02/19 01:20:12;;;;;;;;;;;;;;;;;;5158501;27;19911;-71
2023/02/19 01:22:38;;;;;;;;;;;;;;;;;;5158374;27;19914;-71
2023/02/19 01:25:04;;;;;;;;;;;;;;;;;;5157990;27;19907;-70
2023/02/19 01:27:30;;;;;;;;;;;;;;;;;;5158285;27;20016;-70
2023/02/19 01:29:56;;;;;;;;;;;;;;;;;;5158518;27;20381;-70
2023/02/19 01:32:22;;;;;;;;;;;;;;;;;;5157749;27;20358;-70
2023/02/19 01:34:48;;;;;;;;;;;;;;;;;;5139405;27;20382;-70
2023/02/19 01:37:14;;;;;;;;;;;;;;;;;;5158076;27;20416;-70
2023/02/19 01:39:40;;;;;;;;;;;;;;;;;;5139121;27;20260;-70
2023/02/19 01:42:06;;;;;;;;;;;;;;;;;;5139281;27;19915;-71
2023/02/19 01:44:32;;;;;;;;;;;;;;;;;;5158137;27;19994;-71
2023/02/19 01:46:58;;;;;;;;;;;;;;;;;;5157586;27;19914;-70
2023/02/19 01:49:24;;;;;;;;;;;;;;;;;;5157930;27;19907;-70
2023/02/19 01:51:50;;;;;;;;;;;;;;;;;;5157880;27;19960;-71
2023/02/19 01:54:16;;;;;;;;;;;;;;;;;;5157332;27;19954;-69
2023/02/19 01:56:41;;;;;;;;;;;;;;;;;;5139200;27;19922;-70
2023/02/19 01:59:07;;;;;;;;;;;;;;;;;;5157776;27;19997;-71
2023/02/19 02:01:33;;;;;;;;;;;;;;;;;;5157049;27;19919;-71
2023/02/19 02:03:59;;;;;;;;;;;;;;;;;;5157560;27;19907;-71
2023/02/19 02:06:25;;;;;;;;;;;;;;;;;;5157136;27;19911;-71
2023/02/19 02:11:35;;;;;;;;;;;;;;;;;;5157455;27;19914;-71
2023/02/19 02:14:01;;;;;;;;;;;;;;;;;;5138360;27;19911;-70
2023/02/19 02:16:27;;;;;;;;;;;;;;;;;;5157318;27;20002;-70
2023/02/19 02:18:53;;;;;;;;;;;;;;;;;;5138723;27;19907;-71
2023/02/19 02:21:19;;;;;;;;;;;;;;;;;;5138177;27;19922;-72
2023/02/19 02:23:46;;;;;;;;;;;;;;;;;;5138557;27;19919;-72
2023/02/19 02:26:11;;;;;;;;;;;;;;;;;;5157496;27;20424;-71
2023/02/19 02:28:37;;;;;;;;;;;;;;;;;;5156676;27;19914;-72
2023/02/19 02:31:03;;;;;;;;;;;;;;;;;;5156997;27;20001;-71
2023/02/19 02:33:29;;;;;;;;;;;;;;;;;;5138366;27;19907;-72
2023/02/19 02:35:55;;;;;;;;;;;;;;;;;;5137965;27;19911;-71
2023/02/19 02:38:21;;;;;;;;;;;;;;;;;;5156844;27;19911;-72
2023/02/19 02:40:47;;;;;;;;;;;;;;;;;;5156705;27;19918;-71
2023/02/19 02:43:13;;;;;;;;;;;;;;;;;;5156367;27;20355;-72
2023/02/19 02:45:39;;;;;;;;;;;;;;;;;;5137314;27;19907;-72
2023/02/19 02:48:05;;;;;;;;;;;;;;;;;;5156664;27;19917;-72
2023/02/19 02:50:31;;;;;;;;;;;;;;;;;;5137683;27;19929;-71
2023/02/19 02:55:42;;;;;;;;;;;;;;;;;;5156371;27;20290;-71
2023/02/19 02:58:08;;;;;;;;;;;;;;;;;;5156366;27;20378;-72
2023/02/19 03:03:20;;;;;;;;;;;;;;;;;;5113243;27;19907;-71
2023/02/19 03:05:52;;;;;;;;;;;;;;;;;;5156320;27;19914;-71
2023/02/19 03:08:18;;;;;;;;;;;;;;;;;;5137692;27;19942;-71
2023/02/19 03:10:44;;;;;;;;;;;;;;;;;;5155898;27;19907;-71
2023/02/19 03:21:24;;;;;;;;;;;;;;;;;;5156045;27;20397;-71
2023/02/19 03:26:34;;;;;;;;;;;;;;;;;;5155998;27;19914;-72
2023/02/19 03:31:45;;;;;;;;;;;;;;;;;;5155764;27;19917;-71
2023/02/19 03:34:11;;;;;;;;;;;;;;;;;;5137229;27;20002;-72
2023/02/19 03:36:37;;;;;;;;;;;;;;;;;;5155789;27;19914;-71
2023/02/19 03:39:03;;;;;;;;;;;;;;;;;;5155547;27;19907;-72
2023/02/19 03:41:30;;;;;;;;;;;;;;;;;;5156189;27;19915;-72
2023/02/19 03:43:56;;;;;;;;;;;;;;;;;;5155763;27;19907;-72
2023/02/19 03:46:22;;;;;;;;;;;;;;;;;;5155359;27;19930;-72
2023/02/19 03:48:48;;;;;;;;;;;;;;;;;;5137051;27;20002;-71
2023/02/19 03:51:14;;;;;;;;;;;;;;;;;;5155660;27;19907;-71
2023/02/19 03:53:40;;;;;;;;;;;;;;;;;;5155166;27;19942;-71
2023/02/19 03:56:05;;;;;;;;;;;;;;;;;;5155519;27;19918;-72
2023/02/19 03:58:31;;;;;;;;;;;;;;;;;;5155567;27;20363;-70
2023/02/19 04:00:57;;;;;;;;;;;;;;;;;;5136283;27;19919;-72
2023/02/19 04:03:23;;;;;;;;;;;;;;;;;;5136985;27;19911;-72
2023/02/19 04:05:49;;;;;;;;;;;;;;;;;;5155736;27;19960;-72
2023/02/19 04:08:15;;;;;;;;;;;;;;;;;;5155118;27;20334;-72
2023/02/19 04:10:41;;;;;;;;;;;;;;;;;;5136871;27;20320;-71
2023/02/19 04:13:07;;;;;;;;;;;;;;;;;;5155121;27;19907;-72
2023/02/19 04:15:33;;;;;;;;;;;;;;;;;;5155343;27;19911;-72
2023/02/19 04:17:59;;;;;;;;;;;;;;;;;;5155356;27;19914;-71
2023/02/19 04:20:25;;;;;;;;;;;;;;;;;;5155158;27;19922;-72
2023/02/19 04:22:51;;;;;;;;;;;;;;;;;;5136706;27;19911;-71
2023/02/19 04:25:17;;;;;;;;;;;;;;;;;;5155302;27;19932;-71
2023/02/19 04:27:43;;;;;;;;;;;;;;;;;;5154868;27;20005;-71
2023/02/19 04:30:09;;;;;;;;;;;;;;;;;;5155231;27;19922;-72
2023/02/19 04:32:35;;;;;;;;;;;;;;;;;;5155180;27;19918;-71
2023/02/19 04:35:01;;;;;;;;;;;;;;;;;;5155026;27;19907;-72
2023/02/19 04:37:27;;;;;;;;;;;;;;;;;;5155183;27;19915;-71
2023/02/19 04:39:53;;;;;;;;;;;;;;;;;;5155135;27;19907;-71
2023/02/19 04:42:18;;;;;;;;;;;;;;;;;;5154718;27;19954;-71
2023/02/19 04:44:44;;;;;;;;;;;;;;;;;;5155143;27;20098;-71
2023/02/19 04:47:10;;;;;;;;;;;;;;;;;;5155354;27;19914;-71
2023/02/19 04:49:36;;;;;;;;;;;;;;;;;;5154614;27;20041;-71
2023/02/19 04:52:02;;;;;;;;;;;;;;;;;;5155157;27;19908;-71
2023/02/19 04:54:28;;;;;;;;;;;;;;;;;;5154964;27;19937;-71
2023/02/19 04:56:54;;;;;;;;;;;;;;;;;;5154578;27;19972;-72
2023/02/19 04:59:20;;;;;;;;;;;;;;;;;;5155536;27;19907;-71
2023/02/19 05:01:46;;;;;;;;;;;;;;;;;;5154695;27;19926;-71
2023/02/19 05:04:12;;;;;;;;;;;;;;;;;;5154601;27;19949;-71
2023/02/19 05:06:38;;;;;;;;;;;;;;;;;;5154996;27;20010;-72
2023/02/19 05:09:04;;;;;;;;;;;;;;;;;;5157350;27;19907;-71
2023/02/19 05:11:30;;;;;;;;;;;;;;;;;;5139620;27;19914;-71
2023/02/19 05:13:56;;;;;;;;;;;;;;;;;;5140064;27;20036;-72
2023/02/19 05:16:21;;;;;;;;;;;;;;;;;;5139581;27;19908;-71
2023/02/19 05:18:47;;;;;;;;;;;;;;;;;;5158390;27;20018;-71
2023/02/19 05:21:13;;;;;;;;;;;;;;;;;;5158386;27;19915;-71
2023/02/19 05:23:39;;;;;;;;;;;;;;;;;;5158005;27;20002;-72
2023/02/19 05:26:05;;;;;;;;;;;;;;;;;;5158457;27;19918;-72
2023/02/19 05:28:31;;;;;;;;;;;;;;;;;;5158412;27;19907;-71
2023/02/19 05:30:57;;;;;;;;;;;;;;;;;;5139279;27;19907;-71
2023/02/19 05:33:23;;;;;;;;;;;;;;;;;;5158177;27;20006;-71
2023/02/19 05:35:49;;;;;;;;;;;;;;;;;;5158141;27;19911;-71
2023/02/19 05:38:15;;;;;;;;;;;;;;;;;;5157734;27;19911;-71
2023/02/19 05:40:41;;;;;;;;;;;;;;;;;;5139436;27;20043;-72
2023/02/19 05:43:07;;;;;;;;;;;;;;;;;;5158078;27;19907;-71
2023/02/19 05:45:33;;;;;;;;;;;;;;;;;;5157568;27;19907;-71
2023/02/19 05:47:59;;;;;;;;;;;;;;;;;;5158002;27;19907;-71
2023/02/19 05:50:25;;;;;;;;;;;;;;;;;;5158026;27;19911;-71
2023/02/19 05:52:51;;;;;;;;;;;;;;;;;;5157601;27;19913;-71
2023/02/19 05:55:16;;;;;;;;;;;;;;;;;;5157891;27;19911;-72
2023/02/19 05:57:42;;;;;;;;;;;;;;;;;;5139183;27;19907;-71
2023/02/19 06:00:08;;;;;;;;;;;;;;;;;;5138421;27;19907;-71
2023/02/19 06:02:34;;;;;;;;;;;;;;;;;;5139103;27;19915;-71
2023/02/19 06:05:00;;;;;;;;;;;;;;;;;;5139050;27;20271;-71
2023/02/19 06:07:26;;;;;;;;;;;;;;;;;;5157104;27;20345;-71
2023/02/19 06:09:52;;;;;;;;;;;;;;;;;;5138941;27;19911;-71
2023/02/19 06:12:18;;;;;;;;;;;;;;;;;;5157446;27;19976;-72
2023/02/19 06:14:44;;;;;;;;;;;;;;;;;;5157028;27;19910;-72
2023/02/19 06:17:10;;;;;;;;;;;;;;;;;;5157636;27;19907;-72
2023/02/19 06:19:36;;;;;;;;;;;;;;;;;;5157114;27;19950;-72
2023/02/19 06:22:02;;;;;;;;;;;;;;;;;;5138586;27;19915;-71
2023/02/19 06:24:28;;;;;;;;;;;;;;;;;;5157181;27;19907;-72
2023/02/19 06:26:54;;;;;;;;;;;;;;;;;;5138145;27;19907;-72
2023/02/19 06:29:20;;;;;;;;;;;;;;;;;;5157132;27;19929;-71
2023/02/19 06:31:46;;;;;;;;;;;;;;;;;;5157017;27;19907;-71
2023/02/19 06:34:12;;;;;;;;;;;;;;;;;;5156596;27;19933;-71
2023/02/19 06:36:38;;;;;;;;;;;;;;;;;;5138503;27;19962;-72
2023/02/19 06:39:04;;;;;;;;;;;;;;;;;;5156871;27;19960;-71
2023/02/19 06:41:30;;;;;;;;;;;;;;;;;;5137848;27;19920;-72
2023/02/19 06:43:56;;;;;;;;;;;;;;;;;;5156829;27;19915;-72
2023/02/19 06:46:22;;;;;;;;;;;;;;;;;;5156826;27;19907;-72
2023/02/19 06:48:48;;;;;;;;;;;;;;;;;;5156319;27;20006;-72
2023/02/19 06:51:14;;;;;;;;;;;;;;;;;;5156683;27;19914;-71
2023/02/19 06:53:40;;;;;;;;;;;;;;;;;;5156838;27;19907;-72
2023/02/19 06:56:05;;;;;;;;;;;;;;;;;;5137587;27;19911;-70
2023/02/19 06:58:31;;;;;;;;;;;;;;;;;;5156576;27;19915;-72
2023/02/19 07:00:57;;;;;;;;;;;;;;;;;;5137600;27;20359;-72
2023/02/19 07:03:25;;;;;;;;;;;;;;;;;;5137520;27;19907;-70
2023/02/19 07:05:51;;;;;;;;;;;;;;;;;;5156373;27;19907;-71
2023/02/19 07:08:16;;;;;;;;;;;;;;;;;;5156344;27;19952;-72
2023/02/19 07:10:42;;;;;;;;;;;;;;;;;;5155933;27;19929;-72
2023/02/19 07:13:08;;;;;;;;;;;;;;;;;;5156294;27;19946;-72
2023/02/19 07:15:34;;;;;;;;;;;;;;;;;;5137610;27;19907;-72
2023/02/19 07:18:00;;;;;;;;;;;;;;;;;;5155883;27;19907;-71
2023/02/19 07:20:26;;;;;;;;;;;;;;;;;;5156105;27;19914;-72
2023/02/19 07:22:52;;;;;;;;;;;;;;;;;;5156237;27;20350;-72
2023/02/19 07:25:18;;;;;;;;;;;;;;;;;;5137046;27;19907;-72
2023/02/19 07:27:44;;;;;;;;;;;;;;;;;;5155914;27;19907;-72
2023/02/19 07:30:10;;;;;;;;;;;;;;;;;;5155475;27;19972;-71
2023/02/19 07:32:36;;;;;;;;;;;;;;;;;;5137043;27;19907;-71
2023/02/19 07:35:02;;;;;;;;;;;;;;;;;;5137343;27;19936;-72
2023/02/19 07:37:28;;;;;;;;;;;;;;;;;;5155647;27;19907;-71
2023/02/19 07:39:54;;;;;;;;;;;;;;;;;;5137371;27;19911;-71
2023/02/19 07:42:20;;;;;;;;;;;;;;;;;;5155768;27;20317;-72
2023/02/19 07:44:45;;;;;;;;;;;;;;;;;;5136846;27;19907;-72
2023/02/19 07:47:11;;;;;;;;;;;;;;;;;;5155674;27;19914;-72
2023/02/19 07:49:37;;;;;;;;;;;;;;;;;;5155678;27;19911;-71
2023/02/19 07:52:03;;;;;;;;;;;;;;;;;;5155258;27;20001;-71
2023/02/19 07:54:29;;;;;;;;;;;;;;;;;;5155881;27;19907;-71
2023/02/19 07:56:55;;;;;;;;;;;;;;;;;;5155592;27;19911;-72
2023/02/19 07:59:21;;;;;;;;;;;;;;;;;;5136622;27;20359;-72
2023/02/19 08:04:32;;;;;;;;;;;;;;;;;;5155998;27;19932;-73
2023/02/19 08:06:58;;;;;;;;;;;;;;;;;;5136424;27;19927;-72
2023/02/19 08:09:24;;;;;;;;;;;;;;;;;;5136852;27;19907;-71
2023/02/19 08:14:35;;;;;;;;;;;;;;;;;;5155484;27;19918;-72
2023/02/19 08:17:02;;;;;;;;;;;;;;;;;;5155344;27;19907;-72
2023/02/19 08:19:28;;;;;;;;;;;;;;;;;;5154977;27;19907;-72
2023/02/19 08:21:53;;;;;;;;;;;;;;;;;;5136665;27;19922;-72
2023/02/19 08:24:19;;;;;;;;;;;;;;;;;;5155424;27;19989;-71
2023/02/19 08:26:45;;;;;;;;;;;;;;;;;;5154968;27;19964;-71
2023/02/19 08:29:11;;;;;;;;;;;;;;;;;;5136678;27;19907;-71
2023/02/19 08:31:37;;;;;;;;;;;;;;;;;;5155230;27;19908;-71
2023/02/19 08:34:03;;;;;;;;;;;;;;;;;;5154817;27;19913;-71
2023/02/19 08:36:29;;;;;;;;;;;;;;;;;;5155078;27;19942;-71
2023/02/19 08:38:55;;;;;;;;;;;;;;;;;;5155210;27;19919;-72
2023/02/19 08:41:21;;;;;;;;;;;;;;;;;;5154661;27;19918;-71
2023/02/19 08:43:47;;;;;;;;;;;;;;;;;;5157548;27;20443;-72
2023/02/19 08:46:13;;;;;;;;;;;;;;;;;;5159080;27;19907;-72
2023/02/19 08:48:39;;;;;;;;;;;;;;;;;;5140131;27;19958;-72
2023/02/19 08:51:07;;;;;;;;;;;;;;;;;;5140793;27;19937;-71
2023/02/19 08:53:32;;;;;;;;;;;;;;;;;;5159100;27;20052;-72
2023/02/19 08:55:58;;;;;;;;;;;;;;;;;;5158625;27;19952;-72
2023/02/19 08:58:25;;;;;;;;;;;;;;;;;;5158820;27;19914;-72
2023/02/19 09:00:51;;;;;;;;;;;;;;;;;;5139932;27;20002;-72
2023/02/19 09:03:17;;;;;;;;;;;;;;;;;;5158471;27;19997;-72
2023/02/19 09:05:45;;;;;;;;;;;;;;;;;;5153268;27;19957;-72
2023/02/19 09:08:11;;;;;;;;;;;;;;;;;;5137907;27;19914;-71
2023/02/19 09:10:37;;;;;;;;;;;;;;;;;;5137551;27;19914;-72
2023/02/19 09:13:03;;;;;;;;;;;;;;;;;;5137900;27;19907;-72
2023/02/19 09:15:29;;;;;;;;;;;;;;;;;;5137695;27;19911;-72
2023/02/19 09:17:55;;;;;;;;;;;;;;;;;;5137785;27;20383;-71
2023/02/19 09:20:21;;;;;;;;;;;;;;;;;;5137676;27;19915;-72
2023/02/19 09:22:47;;;;;;;;;;;;;;;;;;5137241;27;19911;-71
2023/02/19 09:25:13;;;;;;;;;;;;;;;;;;5137631;27;19969;-70
2023/02/19 09:27:39;;;;;;;;;;;;;;;;;;5137586;27;19907;-71
2023/02/19 09:30:05;;;;;;;;;;;;;;;;;;5118683;27;19936;-72
2023/02/19 09:32:31;;;;;;;;;;;;;;;;;;5137568;27;19907;-71
2023/02/19 09:34:57;;;;;;;;;;;;;;;;;;5137619;27;19913;-71
2023/02/19 09:37:22;;;;;;;;;;;;;;;;;;5137196;27;19953;-71
2023/02/19 09:39:48;;;;;;;;;;;;;;;;;;5137837;27;20378;-71
2023/02/19 09:42:14;;;;;;;;;;;;;;;;;;5137260;27;20252;-73
2023/02/19 09:44:40;;;;;;;;;;;;;;;;;;5136941;27;20059;-71
2023/02/19 09:47:06;;;;;;;;;;;;;;;;;;5137244;27;19998;-71
2023/02/19 09:49:32;;;;;;;;;;;;;;;;;;5137426;27;20382;-71
2023/02/19 09:51:58;;;;;;;;;;;;;;;;;;5136856;27;20279;-72
2023/02/19 09:54:24;;;;;;;;;;;;;;;;;;5136823;27;19907;-71
2023/02/19 09:56:50;;;;;;;;;;;;;;;;;;5118668;27;19907;-71
2023/02/19 09:59:41;;;;;;;;;;;;;;;;;;5050849;28;19917;-72
2023/02/19 10:03:27;;;;;;;;;;;;;;;;;;5112536;27;19923;-72
2023/02/19 10:05:55;;;;;;;;;;;;;;;;;;5110056;28;19912;-72
2023/02/19 10:08:21;;;;;;;;;;;;;;;;;;5111956;28;20276;-72
2023/02/19 10:12:56;;;;;;;;;;;;;;;;;;5111698;27;19924;-72
2023/02/19 10:18:12;;;;;;;;;;;;;;;;;;5091676;28;20337;-72
2023/02/19 10:22:28;;;;;;;;;;;;;;;;;;5111939;27;20376;-72
2023/02/19 10:26:04;;;;;;;;;;;;;;;;;;5091236;28;20418;-72
2023/02/19 10:31:18;;;;;;;;;;;;;;;;;;5112221;27;20373;-72
2023/02/19 10:33:44;;;;;;;;;;;;;;;;;;5111728;28;19999;-72
2023/02/19 10:36:53;;;;;;;;;;;;;;;;;;5112439;27;19912;-72
2023/02/19 10:39:19;;;;;;;;;;;;;;;;;;5111652;28;20010;-73
2023/02/19 10:41:45;;;;;;;;;;;;;;;;;;5110007;28;19908;-71
2023/02/19 10:45:43;;;;;;;;;;;;;;;;;;5112356;27;19912;-69
2023/02/19 10:48:09;;;;;;;;;;;;;;;;;;5111643;28;20427;-72
2023/02/19 10:50:45;;;;;;;;;;;;;;;;;;5110316;28;19908;-71
2023/02/19 10:54:53;;;;;;;;;;;;;;;;;;5096429;27;2187305;-71
2023/02/19 10:57:24;;;;;;;;;;;;;;;;;;5173720;27;19911;-71
2023/02/19 10:59:50;;;;;;;;;;;;;;;;;;5173698;27;19976;-72
2023/02/19 11:02:16;;;;;;;;;;;;;;;;;;5173268;27;20374;-72
2023/02/19 11:04:42;;;;;;;;;;;;;;;;;;5154912;27;20355;-72
2023/02/19 11:07:08;;;;;;;;;;;;;;;;;;5173506;27;20286;-72
2023/02/19 11:09:34;;;;;;;;;;;;;;;;;;5154418;27;20279;-72
2023/02/19 11:13:00;;;;;;;;;;;;;;;;;;5089140;27;2404029;-72
2023/02/19 11:15:26;;;;;;;;;;;;;;;;;;5173414;27;19911;-73
2023/02/19 11:17:52;;;;;;;;;;;;;;;;;;5155042;27;19911;-72
2023/02/19 11:23:05;;;;;;;;;;;;;;;;;;5111696;27;20309;-72
2023/02/19 11:25:31;;;;;;;;;;;;;;;;;;5111849;28;19918;-72
2023/02/19 11:31:36;;;;;;;;;;;;;;;;;;5111825;27;19912;-72
2023/02/19 11:34:02;;;;;;;;;;;;;;;;;;5111627;28;20003;-69
2023/02/19 11:36:28;;;;;;;;;;;;;;;;;;5111311;28;19951;-71
2023/02/19 11:38:54;;;;;;;;;;;;;;;;;;5111634;28;19908;-70
2023/02/19 11:41:20;;;;;;;;;;;;;;;;;;5111594;28;19912;-70
2023/02/19 11:43:45;;;;;;;;;;;;;;;;;;5111227;28;19915;-71
2023/02/19 11:46:11;;;;;;;;;;;;;;;;;;5111410;28;19961;-71
2023/02/19 11:48:37;;;;;;;;;;;;;;;;;;5111647;28;19991;-71
2023/02/19 11:51:03;;;;;;;;;;;;;;;;;;5109649;28;19927;-70
2023/02/19 11:56:32;;;;;;;;;;;;;;;;;;5152906;27;19911;-72
2023/02/19 11:59:39;;;;;;;;;;;;;;;;;;5091393;27;19912;-71
2023/02/19 12:04:22;;;;;;;;;;;;;;;;;;5091482;27;19922;-72
2023/02/19 12:06:48;;;;;;;;;;;;;;;;;;5091328;28;19970;-71
2023/02/19 12:09:14;;;;;;;;;;;;;;;;;;5091440;28;20364;-72
2023/02/19 12:11:40;;;;;;;;;;;;;;;;;;5090885;28;19908;-72
2023/02/19 12:15:16;;;;;;;;;;;;;;;;;;5112479;27;20365;-70
2023/02/19 12:17:42;;;;;;;;;;;;;;;;;;5110382;28;19912;-71
2023/02/19 12:20:09;;;;;;;;;;;;;;;;;;5111200;28;19915;-71
2023/02/19 12:22:35;;;;;;;;;;;;;;;;;;5111524;28;19953;-71
2023/02/19 12:25:01;;;;;;;;;;;;;;;;;;5111419;28;19912;-71
2023/02/19 12:27:27;;;;;;;;;;;;;;;;;;5111148;28;19955;-71
2023/02/19 12:29:53;;;;;;;;;;;;;;;;;;5111397;28;19917;-71
2023/02/19 12:32:19;;;;;;;;;;;;;;;;;;5111365;28;19912;-71
2023/02/19 12:34:44;;;;;;;;;;;;;;;;;;5109941;28;19923;-71
2023/02/19 12:37:10;;;;;;;;;;;;;;;;;;5111665;28;19908;-71
2023/02/19 12:39:36;;;;;;;;;;;;;;;;;;5109689;28;20054;-72
2023/02/19 12:42:02;;;;;;;;;;;;;;;;;;5111214;28;19954;-71
2023/02/19 12:44:30;;;;;;;;;;;;;;;;;;5111181;28;19915;-71
2023/02/19 12:46:56;;;;;;;;;;;;;;;;;;5110740;28;19915;-72
2023/02/19 12:49:21;;;;;;;;;;;;;;;;;;5111076;28;19994;-72
2023/02/19 12:51:47;;;;;;;;;;;;;;;;;;5109806;28;19908;-72
2023/02/19 12:54:13;;;;;;;;;;;;;;;;;;5110714;28;19961;-72
2023/02/19 12:56:39;;;;;;;;;;;;;;;;;;5109694;28;19995;-71
2023/02/19 12:59:05;;;;;;;;;;;;;;;;;;5111145;28;19953;-73
2023/02/19 13:01:31;;;;;;;;;;;;;;;;;;5110527;28;20352;-73
2023/02/19 13:03:58;;;;;;;;;;;;;;;;;;5109611;28;20265;-72
2023/02/19 13:06:24;;;;;;;;;;;;;;;;;;5110855;28;20260;-72
2023/02/19 13:08:50;;;;;;;;;;;;;;;;;;5110428;28;20104;-72
2023/02/19 13:13:11;;;;;;;;;;;;;;;;;;5111988;27;19923;-71
2023/02/19 13:15:37;;;;;;;;;;;;;;;;;;5111424;28;19999;-71
2023/02/19 13:18:03;;;;;;;;;;;;;;;;;;5111644;28;20318;-71
2023/02/19 13:20:29;;;;;;;;;;;;;;;;;;5111448;28;20359;-73
2023/02/19 13:25:40;;;;;;;;;;;;;;;;;;5111510;28;19954;-72
2023/02/19 13:28:06;;;;;;;;;;;;;;;;;;5110164;28;20300;-74
2023/02/19 13:30:32;;;;;;;;;;;;;;;;;;5109612;28;19915;-72
2023/02/19 13:32:58;;;;;;;;;;;;;;;;;;5111264;28;19916;-72
2023/02/19 13:35:23;;;;;;;;;;;;;;;;;;5110036;28;19991;-73
2023/02/19 13:37:49;;;;;;;;;;;;;;;;;;5110943;28;19908;-72
2023/02/19 13:40:15;;;;;;;;;;;;;;;;;;5111306;28;19908;-72
2023/02/19 13:42:41;;;;;;;;;;;;;;;;;;5111401;28;19919;-72
2023/02/19 13:46:50;;;;;;;;;;;;;;;;;;5111807;27;19916;-71
2023/02/19 13:49:16;;;;;;;;;;;;;;;;;;5112185;28;19912;-73
2023/02/19 13:51:42;;;;;;;;;;;;;;;;;;5110010;28;19908;-72
2023/02/19 13:54:07;;;;;;;;;;;;;;;;;;5111768;28;20387;-72
2023/02/19 13:56:33;;;;;;;;;;;;;;;;;;5111593;28;20326;-73
2023/02/19 14:01:03;;;;;;;;;;;;;;;;;;5112006;27;19916;-72
2023/02/19 14:03:29;;;;;;;;;;;;;;;;;;5111796;28;19912;-71
2023/02/19 14:05:55;;;;;;;;;;;;;;;;;;5111405;28;19915;-72
2023/02/19 14:10:32;;;;;;;;;;;;;;;;;;5071686;28;19917;-72
2023/02/19 14:12:58;;;;;;;;;;;;;;;;;;5069508;28;19919;-72
2023/02/19 14:15:23;;;;;;;;;;;;;;;;;;5071336;28;19954;-72
2023/02/19 14:17:49;;;;;;;;;;;;;;;;;;5070976;28;19908;-72
2023/02/19 14:20:15;;;;;;;;;;;;;;;;;;5069292;28;19948;-71
2023/02/19 14:22:41;;;;;;;;;;;;;;;;;;5069603;28;19992;-73
2023/02/19 14:25:07;;;;;;;;;;;;;;;;;;5070903;28;19909;-72
2023/02/19 14:29:09;;;;;;;;;;;;;;;;;;5112102;27;20384;-73
2023/02/19 14:31:35;;;;;;;;;;;;;;;;;;5111609;28;19912;-71
2023/02/19 14:34:02;;;;;;;;;;;;;;;;;;5110104;28;20018;-71
2023/02/19 14:37:54;;;;;;;;;;;;;;;;;;5092478;27;19916;-70
2023/02/19 14:40:20;;;;;;;;;;;;;;;;;;5091202;28;20348;-71
2023/02/19 14:42:46;;;;;;;;;;;;;;;;;;5091772;28;19908;-72
2023/02/19 14:46:19;;;;;;;;;;;;;;;;;;5112030;27;19926;-71
2023/02/19 14:48:45;;;;;;;;;;;;;;;;;;5111788;28;20015;-70
2023/02/19 14:51:11;;;;;;;;;;;;;;;;;;5111610;28;19908;-72
2023/02/19 14:53:37;;;;;;;;;;;;;;;;;;5110071;28;19915;-70
2023/02/19 14:56:04;;;;;;;;;;;;;;;;;;5111424;28;19908;-71
2023/02/19 14:58:30;;;;;;;;;;;;;;;;;;5111473;28;19912;-70
2023/02/19 15:00:56;;;;;;;;;;;;;;;;;;5111174;28;20282;-71
2023/02/19 15:03:22;;;;;;;;;;;;;;;;;;5111428;28;19908;-71
2023/02/19 15:05:48;;;;;;;;;;;;;;;;;;5111533;28;19922;-71
2023/02/19 15:08:14;;;;;;;;;;;;;;;;;;5111226;28;19908;-71
2023/02/19 15:10:40;;;;;;;;;;;;;;;;;;5110493;28;19912;-71
2023/02/19 15:13:06;;;;;;;;;;;;;;;;;;5111483;28;20427;-71
2023/02/19 15:15:32;;;;;;;;;;;;;;;;;;5110999;28;19962;-71
2023/02/19 15:17:58;;;;;;;;;;;;;;;;;;5111695;28;20348;-71
2023/02/19 15:20:24;;;;;;;;;;;;;;;;;;5109796;28;20427;-72
2023/02/19 15:22:50;;;;;;;;;;;;;;;;;;5110543;28;19908;-71
2023/02/19 15:25:17;;;;;;;;;;;;;;;;;;5110884;28;20007;-70
2023/02/19 15:27:43;;;;;;;;;;;;;;;;;;5110923;28;19908;-71
2023/02/19 15:30:09;;;;;;;;;;;;;;;;;;5110586;28;19973;-72
2023/02/19 15:32:35;;;;;;;;;;;;;;;;;;5110966;28;19915;-72
2023/02/19 15:35:01;;;;;;;;;;;;;;;;;;5110901;28;19954;-72
2023/02/19 15:37:27;;;;;;;;;;;;;;;;;;5109033;28;19912;-72
2023/02/19 15:39:53;;;;;;;;;;;;;;;;;;5109388;28;20310;-72
2023/02/19 15:43:52;;;;;;;;;;;;;;;;;;5111439;27;20384;-71
2023/02/19 15:46:19;;;;;;;;;;;;;;;;;;5110275;28;19916;-71
2023/02/19 15:49:51;;;;;;;;;;;;;;;;;;5111563;27;19912;-72
2023/02/19 15:52:17;;;;;;;;;;;;;;;;;;5111632;28;20015;-72
2023/02/19 15:54:43;;;;;;;;;;;;;;;;;;5111431;28;19908;-72
2023/02/19 15:57:56;;;;;;;;;;;;;;;;;;5091264;28;19917;-72
2023/02/19 16:03:22;;;;;;;;;;;;;;;;;;5144359;27;19916;-72
2023/02/19 16:05:48;;;;;;;;;;;;;;;;;;5111588;28;19994;-72
2023/02/19 16:08:14;;;;;;;;;;;;;;;;;;5111546;28;20368;-72
2023/02/19 16:12:29;;;;;;;;;;;;;;;;;;5111238;27;19916;-72
2023/02/19 16:15:38;;;;;;;;;;;;;;;;;;5092173;27;19923;-72
2023/02/19 16:19:10;;;;;;;;;;;;;;;;;;5070976;28;19923;-71
2023/02/19 16:21:35;;;;;;;;;;;;;;;;;;5071142;28;20004;-71
2023/02/19 16:24:01;;;;;;;;;;;;;;;;;;5069766;28;19974;-70
2023/02/19 16:26:27;;;;;;;;;;;;;;;;;;5070671;28;19909;-70
2023/02/19 16:32:25;;;;;;;;;;;;;;;;;;5091409;27;20287;-72
2023/02/19 16:34:51;;;;;;;;;;;;;;;;;;5091285;28;20011;-72
2023/02/19 16:37:18;;;;;;;;;;;;;;;;;;5091347;28;20006;-72
2023/02/19 16:41:18;;;;;;;;;;;;;;;;;;5112161;27;19912;-73
2023/02/19 16:43:44;;;;;;;;;;;;;;;;;;5111638;28;20030;-71
2023/02/19 16:47:03;;;;;;;;;;;;;;;;;;5111519;27;19916;-71
2023/02/19 16:49:29;;;;;;;;;;;;;;;;;;5110367;28;19918;-71
2023/02/19 16:51:55;;;;;;;;;;;;;;;;;;5111612;28;20420;-71
2023/02/19 16:54:21;;;;;;;;;;;;;;;;;;5111234;28;20261;-71
2023/02/19 16:56:47;;;;;;;;;;;;;;;;;;5110301;28;20330;-72
2023/02/19 17:01:15;;;;;;;;;;;;;;;;;;5091260;27;19916;-72
2023/02/19 17:03:41;;;;;;;;;;;;;;;;;;5091355;28;20011;-71
2023/02/19 17:06:07;;;;;;;;;;;;;;;;;;5091302;28;20030;-71
2023/02/19 17:08:33;;;;;;;;;;;;;;;;;;5089468;28;19912;-72
2023/02/19 17:10:59;;;;;;;;;;;;;;;;;;5089935;28;20002;-71
2023/02/19 17:13:25;;;;;;;;;;;;;;;;;;5089851;28;20381;-71
2023/02/19 17:15:51;;;;;;;;;;;;;;;;;;5090704;28;19943;-72
2023/02/19 17:18:17;;;;;;;;;;;;;;;;;;5091017;28;19953;-73
2023/02/19 17:20:43;;;;;;;;;;;;;;;;;;5090926;28;19917;-72
2023/02/19 17:23:09;;;;;;;;;;;;;;;;;;5090769;28;19962;-72
2023/02/19 17:25:35;;;;;;;;;;;;;;;;;;5090883;28;19913;-72
2023/02/19 17:28:01;;;;;;;;;;;;;;;;;;5089498;28;20397;-72
2023/02/19 17:30:27;;;;;;;;;;;;;;;;;;5090742;28;19916;-71
2023/02/19 17:32:53;;;;;;;;;;;;;;;;;;5089454;28;19908;-72
2023/02/19 17:35:19;;;;;;;;;;;;;;;;;;5090587;28;19909;-72
2023/02/19 17:37:45;;;;;;;;;;;;;;;;;;5089312;28;19912;-72
2023/02/19 17:40:11;;;;;;;;;;;;;;;;;;5090594;28;20430;-72
2023/02/19 17:42:37;;;;;;;;;;;;;;;;;;5088826;28;19916;-72
2023/02/19 17:45:03;;;;;;;;;;;;;;;;;;5090460;28;19909;-72
2023/02/19 17:47:29;;;;;;;;;;;;;;;;;;5090371;28;19922;-71
2023/02/19 17:49:55;;;;;;;;;;;;;;;;;;5090220;28;19954;-71
2023/02/19 17:52:21;;;;;;;;;;;;;;;;;;5090510;28;19908;-72
2023/02/19 17:54:47;;;;;;;;;;;;;;;;;;5090265;28;19915;-71
2023/02/19 17:57:13;;;;;;;;;;;;;;;;;;5089925;28;20387;-72
2023/02/19 17:59:39;;;;;;;;;;;;;;;;;;5097269;28;20364;-72
2023/02/19 18:02:05;;;;;;;;;;;;;;;;;;5110762;28;20326;-72
2023/02/19 18:04:31;;;;;;;;;;;;;;;;;;5110199;28;20360;-71
2023/02/19 18:06:57;;;;;;;;;;;;;;;;;;5092007;28;19920;-72
2023/02/19 18:09:23;;;;;;;;;;;;;;;;;;5092157;28;19915;-72